sensor_id;sensor_type;location;lat;lon;timestamp;P1;durP1;ratioP1;P2;durP2;ratioP2
44558;SDS011;30270;40.238;18.256;2022-07-23T00:02:02;4.00;;;2.70;;
44558;SDS011;30270;40.238;18.256;2022-07-23T00:04:29;9.27;;;3.40;;
44558;SDS011;30270;40.238;18.256;2022-07-23T00:06:57;5.60;;;3.17;;
44558;SDS011;30270;40.238;18.256;2022-07-23T00:09:24;5.03;;;3.40;;
44558;SDS011;30270;40.238;18.256;2022-07-23T00:11:53;5.80;;;3.50;;
44558;SDS011;30270;40.238;18.256;2022-07-23T00:14:20;3.75;;;3.05;;
44558;SDS011;30270;40.238;18.256;2022-07-23T00:16:48;5.82;;;3.15;;
44558;SDS011;30270;40.238;18.256;2022-07-23T00:19:15;5.53;;;3.25;;
44558;SDS011;30270;40.238;18.256;2022-07-23T00:21:43;4.45;;;2.72;;
44558;SDS011;30270;40.238;18.256;2022-07-23T00:24:11;4.30;;;3.13;;
44558;SDS011;30270;40.238;18.256;2022-07-23T00:26:38;5.28;;;3.30;;
44558;SDS011;30270;40.238;18.256;2022-07-23T00:29:06;6.32;;;3.28;;
44558;SDS011;30270;40.238;18.256;2022-07-23T00:31:33;5.15;;;3.17;;
44558;SDS011;30270;40.238;18.256;2022-07-23T00:34:01;5.35;;;3.65;;
44558;SDS011;30270;40.238;18.256;2022-07-23T00:36:29;5.10;;;3.25;;
44558;SDS011;30270;40.238;18.256;2022-07-23T00:38:58;3.90;;;3.47;;
44558;SDS011;30270;40.238;18.256;2022-07-23T00:41:25;6.13;;;2.85;;
44558;SDS011;30270;40.238;18.256;2022-07-23T00:43:53;4.70;;;2.88;;
44558;SDS011;30270;40.238;18.256;2022-07-23T00:46:21;4.13;;;2.90;;
44558;SDS011;30270;40.238;18.256;2022-07-23T00:48:49;4.55;;;2.75;;
44558;SDS011;30270;40.238;18.256;2022-07-23T00:51:16;4.68;;;2.95;;
44558;SDS011;30270;40.238;18.256;2022-07-23T00:53:45;4.22;;;2.63;;
44558;SDS011;30270;40.238;18.256;2022-07-23T00:56:12;5.38;;;2.90;;
44558;SDS011;30270;40.238;18.256;2022-07-23T00:58:40;3.95;;;2.92;;
44558;SDS011;30270;40.238;18.256;2022-07-23T01:01:09;4.50;;;3.38;;
44558;SDS011;30270;40.238;18.256;2022-07-23T01:03:38;4.30;;;2.40;;
44558;SDS011;30270;40.238;18.256;2022-07-23T01:06:06;4.22;;;2.83;;
44558;SDS011;30270;40.238;18.256;2022-07-23T01:08:34;5.57;;;3.00;;
44558;SDS011;30270;40.238;18.256;2022-07-23T01:11:01;3.75;;;2.53;;
44558;SDS011;30270;40.238;18.256;2022-07-23T01:13:29;4.65;;;3.22;;
44558;SDS011;30270;40.238;18.256;2022-07-23T01:15:57;4.20;;;2.65;;
44558;SDS011;30270;40.238;18.256;2022-07-23T01:18:24;3.85;;;2.70;;
44558;SDS011;30270;40.238;18.256;2022-07-23T01:20:52;5.00;;;2.55;;
44558;SDS011;30270;40.238;18.256;2022-07-23T01:23:19;4.22;;;3.00;;
44558;SDS011;30270;40.238;18.256;2022-07-23T01:25:52;2.95;;;2.08;;
44558;SDS011;30270;40.238;18.256;2022-07-23T01:28:22;4.53;;;3.13;;
44558;SDS011;30270;40.238;18.256;2022-07-23T01:30:50;5.15;;;2.95;;
44558;SDS011;30270;40.238;18.256;2022-07-23T01:33:18;4.60;;;2.65;;
44558;SDS011;30270;40.238;18.256;2022-07-23T01:35:45;4.32;;;2.47;;
44558;SDS011;30270;40.238;18.256;2022-07-23T01:38:18;4.25;;;2.60;;
44558;SDS011;30270;40.238;18.256;2022-07-23T01:40:46;3.97;;;3.00;;
44558;SDS011;30270;40.238;18.256;2022-07-23T01:43:15;4.28;;;2.90;;
44558;SDS011;30270;40.238;18.256;2022-07-23T01:45:43;5.05;;;2.35;;
44558;SDS011;30270;40.238;18.256;2022-07-23T01:48:12;3.97;;;2.70;;
44558;SDS011;30270;40.238;18.256;2022-07-23T01:50:48;4.22;;;2.45;;
44558;SDS011;30270;40.238;18.256;2022-07-23T01:53:29;5.78;;;3.13;;
44558;SDS011;30270;40.238;18.256;2022-07-23T01:55:58;4.18;;;2.80;;
44558;SDS011;30270;40.238;18.256;2022-07-23T01:58:26;3.83;;;2.63;;
44558;SDS011;30270;40.238;18.256;2022-07-23T02:00:55;3.85;;;2.20;;
44558;SDS011;30270;40.238;18.256;2022-07-23T02:03:23;3.80;;;2.65;;
44558;SDS011;30270;40.238;18.256;2022-07-23T02:05:50;3.65;;;2.38;;
44558;SDS011;30270;40.238;18.256;2022-07-23T02:08:18;2.95;;;2.10;;
44558;SDS011;30270;40.238;18.256;2022-07-23T02:10:46;4.45;;;2.55;;
44558;SDS011;30270;40.238;18.256;2022-07-23T02:13:14;4.35;;;2.50;;
44558;SDS011;30270;40.238;18.256;2022-07-23T02:15:42;4.53;;;3.08;;
44558;SDS011;30270;40.238;18.256;2022-07-23T02:18:10;3.35;;;2.22;;
44558;SDS011;30270;40.238;18.256;2022-07-23T02:20:37;4.60;;;2.85;;
44558;SDS011;30270;40.238;18.256;2022-07-23T02:23:07;4.85;;;2.65;;
44558;SDS011;30270;40.238;18.256;2022-07-23T02:25:34;5.50;;;3.17;;
44558;SDS011;30270;40.238;18.256;2022-07-23T02:28:02;3.88;;;2.40;;
44558;SDS011;30270;40.238;18.256;2022-07-23T02:30:30;4.65;;;3.00;;
44558;SDS011;30270;40.238;18.256;2022-07-23T02:32:57;4.20;;;3.08;;
44558;SDS011;30270;40.238;18.256;2022-07-23T02:35:25;5.13;;;3.35;;
44558;SDS011;30270;40.238;18.256;2022-07-23T02:37:55;5.43;;;3.75;;
44558;SDS011;30270;40.238;18.256;2022-07-23T02:40:23;5.22;;;3.97;;
44558;SDS011;30270;40.238;18.256;2022-07-23T02:42:50;7.30;;;4.75;;
44558;SDS011;30270;40.238;18.256;2022-07-23T02:45:17;4.85;;;3.92;;
44558;SDS011;30270;40.238;18.256;2022-07-23T02:47:45;6.47;;;3.70;;
44558;SDS011;30270;40.238;18.256;2022-07-23T02:50:12;5.15;;;4.10;;
44558;SDS011;30270;40.238;18.256;2022-07-23T02:52:40;5.20;;;4.15;;
44558;SDS011;30270;40.238;18.256;2022-07-23T02:55:08;8.18;;;4.18;;
44558;SDS011;30270;40.238;18.256;2022-07-23T02:57:35;6.45;;;4.10;;
44558;SDS011;30270;40.238;18.256;2022-07-23T03:00:04;4.78;;;3.97;;
44558;SDS011;30270;40.238;18.256;2022-07-23T03:02:33;5.65;;;4.10;;
44558;SDS011;30270;40.238;18.256;2022-07-23T03:05:01;5.32;;;3.92;;
44558;SDS011;30270;40.238;18.256;2022-07-23T03:07:29;5.90;;;4.40;;
44558;SDS011;30270;40.238;18.256;2022-07-23T03:09:57;11.02;;;4.30;;
44558;SDS011;30270;40.238;18.256;2022-07-23T03:12:24;6.47;;;3.78;;
44558;SDS011;30270;40.238;18.256;2022-07-23T03:14:52;7.32;;;4.78;;
44558;SDS011;30270;40.238;18.256;2022-07-23T03:17:20;6.32;;;3.83;;
44558;SDS011;30270;40.238;18.256;2022-07-23T03:19:47;5.68;;;4.13;;
44558;SDS011;30270;40.238;18.256;2022-07-23T03:22:15;5.63;;;4.00;;
44558;SDS011;30270;40.238;18.256;2022-07-23T03:24:42;5.15;;;3.90;;
44558;SDS011;30270;40.238;18.256;2022-07-23T03:27:26;4.90;;;3.63;;
44558;SDS011;30270;40.238;18.256;2022-07-23T03:29:56;4.55;;;3.85;;
44558;SDS011;30270;40.238;18.256;2022-07-23T03:32:25;5.28;;;4.53;;
44558;SDS011;30270;40.238;18.256;2022-07-23T03:34:53;7.43;;;3.80;;
44558;SDS011;30270;40.238;18.256;2022-07-23T03:37:22;5.00;;;3.53;;
44558;SDS011;30270;40.238;18.256;2022-07-23T03:39:49;5.28;;;3.38;;
44558;SDS011;30270;40.238;18.256;2022-07-23T03:42:17;8.27;;;3.83;;
44558;SDS011;30270;40.238;18.256;2022-07-23T03:44:45;6.10;;;3.72;;
44558;SDS011;30270;40.238;18.256;2022-07-23T03:47:13;6.50;;;3.80;;
44558;SDS011;30270;40.238;18.256;2022-07-23T03:49:42;7.25;;;4.13;;
44558;SDS011;30270;40.238;18.256;2022-07-23T03:52:10;5.60;;;3.63;;
44558;SDS011;30270;40.238;18.256;2022-07-23T03:54:37;8.65;;;3.67;;
44558;SDS011;30270;40.238;18.256;2022-07-23T03:57:06;4.70;;;3.50;;
44558;SDS011;30270;40.238;18.256;2022-07-23T03:59:34;7.85;;;3.63;;
44558;SDS011;30270;40.238;18.256;2022-07-23T04:02:02;7.72;;;3.63;;
44558;SDS011;30270;40.238;18.256;2022-07-23T04:04:29;4.55;;;3.42;;
44558;SDS011;30270;40.238;18.256;2022-07-23T04:06:57;4.68;;;3.42;;
44558;SDS011;30270;40.238;18.256;2022-07-23T04:09:25;5.63;;;4.05;;
44558;SDS011;30270;40.238;18.256;2022-07-23T04:11:53;5.15;;;3.65;;
44558;SDS011;30270;40.238;18.256;2022-07-23T04:14:21;5.82;;;4.65;;
44558;SDS011;30270;40.238;18.256;2022-07-23T04:16:48;7.22;;;4.13;;
44558;SDS011;30270;40.238;18.256;2022-07-23T04:19:16;6.82;;;4.40;;
44558;SDS011;30270;40.238;18.256;2022-07-23T04:21:56;10.48;;;5.80;;
44558;SDS011;30270;40.238;18.256;2022-07-23T04:24:24;7.97;;;4.72;;
44558;SDS011;30270;40.238;18.256;2022-07-23T04:26:52;6.15;;;4.95;;
44558;SDS011;30270;40.238;18.256;2022-07-23T04:29:20;8.52;;;5.22;;
44558;SDS011;30270;40.238;18.256;2022-07-23T04:31:48;7.80;;;4.78;;
44558;SDS011;30270;40.238;18.256;2022-07-23T04:34:16;5.80;;;4.00;;
44558;SDS011;30270;40.238;18.256;2022-07-23T04:36:44;4.88;;;3.95;;
44558;SDS011;30270;40.238;18.256;2022-07-23T04:39:12;5.05;;;3.92;;
44558;SDS011;30270;40.238;18.256;2022-07-23T04:41:41;5.55;;;3.83;;
44558;SDS011;30270;40.238;18.256;2022-07-23T04:44:09;7.25;;;3.90;;
44558;SDS011;30270;40.238;18.256;2022-07-23T04:46:36;4.10;;;3.30;;
44558;SDS011;30270;40.238;18.256;2022-07-23T04:49:07;7.03;;;3.13;;
44558;SDS011;30270;40.238;18.256;2022-07-23T04:51:35;3.85;;;3.45;;
44558;SDS011;30270;40.238;18.256;2022-07-23T04:54:03;5.65;;;3.35;;
44558;SDS011;30270;40.238;18.256;2022-07-23T04:56:31;6.47;;;3.72;;
44558;SDS011;30270;40.238;18.256;2022-07-23T04:58:59;7.00;;;3.45;;
44558;SDS011;30270;40.238;18.256;2022-07-23T05:01:27;5.00;;;2.97;;
44558;SDS011;30270;40.238;18.256;2022-07-23T05:03:55;3.97;;;3.08;;
44558;SDS011;30270;40.238;18.256;2022-07-23T05:06:26;6.30;;;4.05;;
44558;SDS011;30270;40.238;18.256;2022-07-23T05:08:55;13.27;;;4.97;;
44558;SDS011;30270;40.238;18.256;2022-07-23T05:11:23;9.82;;;5.20;;
44558;SDS011;30270;40.238;18.256;2022-07-23T05:13:52;11.63;;;6.68;;
44558;SDS011;30270;40.238;18.256;2022-07-23T05:16:21;11.18;;;6.15;;
44558;SDS011;30270;40.238;18.256;2022-07-23T05:18:50;10.10;;;6.43;;
44558;SDS011;30270;40.238;18.256;2022-07-23T05:21:18;9.68;;;5.35;;
44558;SDS011;30270;40.238;18.256;2022-07-23T05:23:45;7.65;;;5.15;;
44558;SDS011;30270;40.238;18.256;2022-07-23T05:26:13;6.60;;;4.03;;
44558;SDS011;30270;40.238;18.256;2022-07-23T05:28:41;8.32;;;3.97;;
44558;SDS011;30270;40.238;18.256;2022-07-23T05:31:10;10.02;;;3.85;;
44558;SDS011;30270;40.238;18.256;2022-07-23T05:33:38;6.07;;;3.55;;
44558;SDS011;30270;40.238;18.256;2022-07-23T05:36:06;7.18;;;3.47;;
44558;SDS011;30270;40.238;18.256;2022-07-23T05:38:42;6.07;;;3.60;;
44558;SDS011;30270;40.238;18.256;2022-07-23T05:41:10;7.70;;;3.88;;
44558;SDS011;30270;40.238;18.256;2022-07-23T05:43:37;6.40;;;3.53;;
44558;SDS011;30270;40.238;18.256;2022-07-23T05:46:09;4.68;;;3.35;;
44558;SDS011;30270;40.238;18.256;2022-07-23T05:48:40;9.23;;;3.72;;
44558;SDS011;30270;40.238;18.256;2022-07-23T05:51:26;6.07;;;3.40;;
44558;SDS011;30270;40.238;18.256;2022-07-23T05:53:54;9.45;;;4.10;;
44558;SDS011;30270;40.238;18.256;2022-07-23T05:56:26;6.65;;;3.85;;
44558;SDS011;30270;40.238;18.256;2022-07-23T05:58:54;6.43;;;3.53;;
44558;SDS011;30270;40.238;18.256;2022-07-23T06:01:22;4.80;;;3.50;;
44558;SDS011;30270;40.238;18.256;2022-07-23T06:04:15;8.02;;;3.63;;
44558;SDS011;30270;40.238;18.256;2022-07-23T06:06:54;6.25;;;3.33;;
44558;SDS011;30270;40.238;18.256;2022-07-23T06:09:22;6.78;;;3.95;;
44558;SDS011;30270;40.238;18.256;2022-07-23T06:11:50;7.32;;;4.10;;
44558;SDS011;30270;40.238;18.256;2022-07-23T06:14:17;6.93;;;4.88;;
44558;SDS011;30270;40.238;18.256;2022-07-23T06:16:55;7.82;;;3.83;;
44558;SDS011;30270;40.238;18.256;2022-07-23T06:19:22;8.05;;;4.32;;
44558;SDS011;30270;40.238;18.256;2022-07-23T06:21:50;6.15;;;4.18;;
44558;SDS011;30270;40.238;18.256;2022-07-23T06:24:18;7.65;;;3.72;;
44558;SDS011;30270;40.238;18.256;2022-07-23T06:26:48;10.60;;;4.88;;
44558;SDS011;30270;40.238;18.256;2022-07-23T06:29:15;10.88;;;5.57;;
44558;SDS011;30270;40.238;18.256;2022-07-23T06:31:43;10.18;;;5.13;;
44558;SDS011;30270;40.238;18.256;2022-07-23T06:34:13;7.50;;;5.22;;
44558;SDS011;30270;40.238;18.256;2022-07-23T06:36:40;8.77;;;5.47;;
44558;SDS011;30270;40.238;18.256;2022-07-23T06:39:08;10.07;;;5.13;;
44558;SDS011;30270;40.238;18.256;2022-07-23T06:41:37;8.85;;;4.82;;
44558;SDS011;30270;40.238;18.256;2022-07-23T06:44:05;6.50;;;4.22;;
44558;SDS011;30270;40.238;18.256;2022-07-23T06:46:34;7.47;;;4.30;;
44558;SDS011;30270;40.238;18.256;2022-07-23T06:49:02;5.75;;;4.43;;
44558;SDS011;30270;40.238;18.256;2022-07-23T06:51:31;6.05;;;3.88;;
44558;SDS011;30270;40.238;18.256;2022-07-23T06:54:00;5.90;;;4.18;;
44558;SDS011;30270;40.238;18.256;2022-07-23T06:56:28;5.13;;;3.20;;
44558;SDS011;30270;40.238;18.256;2022-07-23T06:58:56;6.07;;;3.92;;
44558;SDS011;30270;40.238;18.256;2022-07-23T07:01:25;8.90;;;4.13;;
44558;SDS011;30270;40.238;18.256;2022-07-23T07:03:53;6.63;;;4.13;;
44558;SDS011;30270;40.238;18.256;2022-07-23T07:06:21;5.53;;;3.83;;
44558;SDS011;30270;40.238;18.256;2022-07-23T07:08:48;5.82;;;3.45;;
44558;SDS011;30270;40.238;18.256;2022-07-23T07:11:16;4.93;;;3.35;;
44558;SDS011;30270;40.238;18.256;2022-07-23T07:13:44;4.45;;;3.78;;
44558;SDS011;30270;40.238;18.256;2022-07-23T07:16:11;5.63;;;3.25;;
44558;SDS011;30270;40.238;18.256;2022-07-23T07:18:39;7.18;;;3.58;;
44558;SDS011;30270;40.238;18.256;2022-07-23T07:21:06;9.20;;;3.05;;
44558;SDS011;30270;40.238;18.256;2022-07-23T07:23:34;8.00;;;3.22;;
44558;SDS011;30270;40.238;18.256;2022-07-23T07:26:02;5.60;;;2.95;;
44558;SDS011;30270;40.238;18.256;2022-07-23T07:28:29;4.35;;;2.97;;
44558;SDS011;30270;40.238;18.256;2022-07-23T07:30:57;4.60;;;2.90;;
44558;SDS011;30270;40.238;18.256;2022-07-23T07:33:24;4.47;;;3.28;;
44558;SDS011;30270;40.238;18.256;2022-07-23T07:35:52;6.03;;;3.00;;
44558;SDS011;30270;40.238;18.256;2022-07-23T07:38:21;4.65;;;2.97;;
44558;SDS011;30270;40.238;18.256;2022-07-23T07:40:48;6.28;;;2.97;;
44558;SDS011;30270;40.238;18.256;2022-07-23T07:43:16;4.05;;;2.63;;
44558;SDS011;30270;40.238;18.256;2022-07-23T07:45:43;4.50;;;3.10;;
44558;SDS011;30270;40.238;18.256;2022-07-23T07:48:11;3.70;;;2.80;;
44558;SDS011;30270;40.238;18.256;2022-07-23T07:50:39;6.00;;;2.97;;
44558;SDS011;30270;40.238;18.256;2022-07-23T07:53:06;4.93;;;2.88;;
44558;SDS011;30270;40.238;18.256;2022-07-23T07:55:35;3.72;;;2.85;;
44558;SDS011;30270;40.238;18.256;2022-07-23T07:58:03;5.32;;;2.80;;
44558;SDS011;30270;40.238;18.256;2022-07-23T08:00:30;4.63;;;3.00;;
44558;SDS011;30270;40.238;18.256;2022-07-23T08:02:59;4.28;;;2.53;;
44558;SDS011;30270;40.238;18.256;2022-07-23T08:05:28;4.30;;;2.78;;
44558;SDS011;30270;40.238;18.256;2022-07-23T08:07:57;4.60;;;3.35;;
44558;SDS011;30270;40.238;18.256;2022-07-23T08:10:26;5.93;;;2.92;;
44558;SDS011;30270;40.238;18.256;2022-07-23T08:12:55;4.32;;;2.90;;
44558;SDS011;30270;40.238;18.256;2022-07-23T08:15:24;3.95;;;2.95;;
44558;SDS011;30270;40.238;18.256;2022-07-23T08:17:53;5.13;;;3.20;;
44558;SDS011;30270;40.238;18.256;2022-07-23T08:20:22;5.47;;;2.80;;
44558;SDS011;30270;40.238;18.256;2022-07-23T08:23:03;6.35;;;3.30;;
44558;SDS011;30270;40.238;18.256;2022-07-23T08:25:42;6.30;;;2.95;;
44558;SDS011;30270;40.238;18.256;2022-07-23T08:28:10;3.47;;;2.60;;
44558;SDS011;30270;40.238;18.256;2022-07-23T08:30:40;3.90;;;2.92;;
44558;SDS011;30270;40.238;18.256;2022-07-23T08:33:10;6.82;;;3.00;;
44558;SDS011;30270;40.238;18.256;2022-07-23T08:35:41;6.25;;;3.10;;
44558;SDS011;30270;40.238;18.256;2022-07-23T08:38:11;12.23;;;3.58;;
44558;SDS011;30270;40.238;18.256;2022-07-23T08:40:41;6.32;;;3.17;;
44558;SDS011;30270;40.238;18.256;2022-07-23T08:43:11;4.95;;;3.15;;
44558;SDS011;30270;40.238;18.256;2022-07-23T08:45:50;6.85;;;3.45;;
44558;SDS011;30270;40.238;18.256;2022-07-23T08:48:35;5.38;;;3.53;;
44558;SDS011;30270;40.238;18.256;2022-07-23T08:51:04;7.97;;;3.75;;
44558;SDS011;30270;40.238;18.256;2022-07-23T08:53:33;6.95;;;3.55;;
44558;SDS011;30270;40.238;18.256;2022-07-23T08:56:06;4.18;;;3.25;;
44558;SDS011;30270;40.238;18.256;2022-07-23T08:58:34;6.57;;;3.58;;
44558;SDS011;30270;40.238;18.256;2022-07-23T09:01:02;5.80;;;3.17;;
44558;SDS011;30270;40.238;18.256;2022-07-23T09:03:31;4.00;;;2.92;;
44558;SDS011;30270;40.238;18.256;2022-07-23T09:06:02;5.07;;;2.90;;
44558;SDS011;30270;40.238;18.256;2022-07-23T09:08:38;4.25;;;3.00;;
44558;SDS011;30270;40.238;18.256;2022-07-23T09:11:11;8.80;;;3.50;;
44558;SDS011;30270;40.238;18.256;2022-07-23T09:13:47;4.47;;;3.13;;
44558;SDS011;30270;40.238;18.256;2022-07-23T09:16:17;3.67;;;2.67;;
44558;SDS011;30270;40.238;18.256;2022-07-23T09:19:03;2.90;;;2.55;;
44558;SDS011;30270;40.238;18.256;2022-07-23T09:21:35;5.70;;;3.22;;
44558;SDS011;30270;40.238;18.256;2022-07-23T09:24:13;9.55;;;3.20;;
44558;SDS011;30270;40.238;18.256;2022-07-23T09:26:45;6.07;;;2.90;;
44558;SDS011;30270;40.238;18.256;2022-07-23T09:29:19;3.58;;;2.58;;
44558;SDS011;30270;40.238;18.256;2022-07-23T09:34:28;15.07;;;3.95;;
44558;SDS011;30270;40.238;18.256;2022-07-23T09:37:10;5.22;;;2.80;;
44558;SDS011;30270;40.238;18.256;2022-07-23T09:39:41;4.57;;;2.90;;
44558;SDS011;30270;40.238;18.256;2022-07-23T09:44:47;3.35;;;2.67;;
44558;SDS011;30270;40.238;18.256;2022-07-23T09:47:16;12.43;;;3.40;;
44558;SDS011;30270;40.238;18.256;2022-07-23T09:52:47;6.68;;;2.92;;
44558;SDS011;30270;40.238;18.256;2022-07-23T09:55:17;3.80;;;2.47;;
44558;SDS011;30270;40.238;18.256;2022-07-23T09:57:46;3.42;;;2.80;;
44558;SDS011;30270;40.238;18.256;2022-07-23T10:00:20;4.18;;;3.47;;
44558;SDS011;30270;40.238;18.256;2022-07-23T10:02:48;4.38;;;2.70;;
44558;SDS011;30270;40.238;18.256;2022-07-23T10:05:37;3.75;;;2.90;;
44558;SDS011;30270;40.238;18.256;2022-07-23T10:08:34;3.70;;;2.90;;
44558;SDS011;30270;40.238;18.256;2022-07-23T10:11:31;3.33;;;2.45;;
44558;SDS011;30270;40.238;18.256;2022-07-23T10:14:19;6.07;;;2.63;;
44558;SDS011;30270;40.238;18.256;2022-07-23T10:16:54;4.50;;;2.72;;
44558;SDS011;30270;40.238;18.256;2022-07-23T10:19:21;4.95;;;3.03;;
44558;SDS011;30270;40.238;18.256;2022-07-23T10:21:52;4.55;;;3.15;;
44558;SDS011;30270;40.238;18.256;2022-07-23T10:24:46;5.63;;;2.55;;
44558;SDS011;30270;40.238;18.256;2022-07-23T10:30:45;5.20;;;3.03;;
44558;SDS011;30270;40.238;18.256;2022-07-23T10:36:23;3.10;;;2.40;;
44558;SDS011;30270;40.238;18.256;2022-07-23T10:39:13;2.65;;;2.08;;
44558;SDS011;30270;40.238;18.256;2022-07-23T10:42:14;5.63;;;2.92;;
44558;SDS011;30270;40.238;18.256;2022-07-23T10:44:45;4.60;;;2.63;;
44558;SDS011;30270;40.238;18.256;2022-07-23T10:50:21;3.78;;;2.40;;
44558;SDS011;30270;40.238;18.256;2022-07-23T10:53:28;4.35;;;2.92;;
44558;SDS011;30270;40.238;18.256;2022-07-23T10:55:51;3.50;;;2.67;;
44558;SDS011;30270;40.238;18.256;2022-07-23T10:58:20;3.38;;;2.47;;
44558;SDS011;30270;40.238;18.256;2022-07-23T11:00:50;3.25;;;2.38;;
44558;SDS011;30270;40.238;18.256;2022-07-23T11:03:36;2.92;;;2.20;;
44558;SDS011;30270;40.238;18.256;2022-07-23T11:06:05;6.63;;;2.97;;
44558;SDS011;30270;40.238;18.256;2022-07-23T11:08:33;4.65;;;2.30;;
44558;SDS011;30270;40.238;18.256;2022-07-23T11:13:29;5.05;;;2.58;;
44558;SDS011;30270;40.238;18.256;2022-07-23T11:16:05;4.93;;;2.42;;
44558;SDS011;30270;40.238;18.256;2022-07-23T11:18:55;8.10;;;2.53;;
44558;SDS011;30270;40.238;18.256;2022-07-23T11:34:50;3.28;;;2.63;;
44558;SDS011;30270;40.238;18.256;2022-07-23T11:37:27;5.07;;;2.90;;
44558;SDS011;30270;40.238;18.256;2022-07-23T11:39:56;3.63;;;2.53;;
44558;SDS011;30270;40.238;18.256;2022-07-23T11:42:25;4.03;;;3.05;;
44558;SDS011;30270;40.238;18.256;2022-07-23T11:44:56;5.90;;;2.92;;
44558;SDS011;30270;40.238;18.256;2022-07-23T11:47:25;4.30;;;2.50;;
44558;SDS011;30270;40.238;18.256;2022-07-23T11:49:54;4.63;;;2.65;;
44558;SDS011;30270;40.238;18.256;2022-07-23T11:52:25;3.72;;;2.97;;
44558;SDS011;30270;40.238;18.256;2022-07-23T11:54:58;3.72;;;2.75;;
44558;SDS011;30270;40.238;18.256;2022-07-23T11:57:27;3.92;;;2.70;;
44558;SDS011;30270;40.238;18.256;2022-07-23T12:02:58;5.38;;;3.20;;
44558;SDS011;30270;40.238;18.256;2022-07-23T12:05:29;5.90;;;3.92;;
44558;SDS011;30270;40.238;18.256;2022-07-23T12:08:03;4.80;;;3.60;;
44558;SDS011;30270;40.238;18.256;2022-07-23T12:10:34;4.38;;;3.10;;
44558;SDS011;30270;40.238;18.256;2022-07-23T12:13:04;3.55;;;3.03;;
44558;SDS011;30270;40.238;18.256;2022-07-23T12:15:36;3.45;;;2.58;;
44558;SDS011;30270;40.238;18.256;2022-07-23T12:18:08;4.30;;;2.85;;
44558;SDS011;30270;40.238;18.256;2022-07-23T12:20:39;5.63;;;3.22;;
44558;SDS011;30270;40.238;18.256;2022-07-23T12:23:11;4.25;;;3.17;;
44558;SDS011;30270;40.238;18.256;2022-07-23T12:25:41;4.68;;;2.50;;
44558;SDS011;30270;40.238;18.256;2022-07-23T12:28:14;4.10;;;2.80;;
44558;SDS011;30270;40.238;18.256;2022-07-23T12:30:51;4.65;;;3.05;;
44558;SDS011;30270;40.238;18.256;2022-07-23T12:33:41;8.23;;;2.95;;
44558;SDS011;30270;40.238;18.256;2022-07-23T12:36:08;3.47;;;2.80;;
44558;SDS011;30270;40.238;18.256;2022-07-23T12:38:39;6.57;;;3.17;;
44558;SDS011;30270;40.238;18.256;2022-07-23T12:41:13;3.10;;;2.42;;
44558;SDS011;30270;40.238;18.256;2022-07-23T12:43:42;4.82;;;2.75;;
44558;SDS011;30270;40.238;18.256;2022-07-23T12:46:21;4.88;;;3.05;;
44558;SDS011;30270;40.238;18.256;2022-07-23T12:48:53;2.97;;;2.38;;
44558;SDS011;30270;40.238;18.256;2022-07-23T12:54:04;4.00;;;2.78;;
44558;SDS011;30270;40.238;18.256;2022-07-23T12:56:34;7.28;;;2.97;;
44558;SDS011;30270;40.238;18.256;2022-07-23T13:01:32;4.95;;;3.47;;
44558;SDS011;30270;40.238;18.256;2022-07-23T13:06:36;5.53;;;2.42;;
44558;SDS011;30270;40.238;18.256;2022-07-23T13:09:06;5.10;;;3.00;;
44558;SDS011;30270;40.238;18.256;2022-07-23T13:11:36;6.47;;;3.63;;
44558;SDS011;30270;40.238;18.256;2022-07-23T13:14:05;4.38;;;3.88;;
44558;SDS011;30270;40.238;18.256;2022-07-23T13:16:34;4.30;;;2.88;;
44558;SDS011;30270;40.238;18.256;2022-07-23T13:19:01;4.03;;;2.80;;
44558;SDS011;30270;40.238;18.256;2022-07-23T13:21:30;3.92;;;2.97;;
44558;SDS011;30270;40.238;18.256;2022-07-23T13:23:57;4.30;;;3.20;;
44558;SDS011;30270;40.238;18.256;2022-07-23T13:26:26;4.20;;;3.58;;
44558;SDS011;30270;40.238;18.256;2022-07-23T13:28:54;5.10;;;2.90;;
44558;SDS011;30270;40.238;18.256;2022-07-23T13:31:21;3.85;;;3.38;;
44558;SDS011;30270;40.238;18.256;2022-07-23T13:33:49;5.88;;;3.30;;
44558;SDS011;30270;40.238;18.256;2022-07-23T13:36:17;4.47;;;3.38;;
44558;SDS011;30270;40.238;18.256;2022-07-23T13:38:44;4.80;;;3.40;;
44558;SDS011;30270;40.238;18.256;2022-07-23T13:41:12;4.05;;;3.30;;
44558;SDS011;30270;40.238;18.256;2022-07-23T13:43:40;5.38;;;3.50;;
44558;SDS011;30270;40.238;18.256;2022-07-23T13:46:08;4.93;;;3.90;;
44558;SDS011;30270;40.238;18.256;2022-07-23T13:48:36;4.22;;;3.65;;
44558;SDS011;30270;40.238;18.256;2022-07-23T13:51:03;4.75;;;3.75;;
44558;SDS011;30270;40.238;18.256;2022-07-23T13:53:31;7.45;;;3.80;;
44558;SDS011;30270;40.238;18.256;2022-07-23T13:55:59;5.60;;;3.58;;
44558;SDS011;30270;40.238;18.256;2022-07-23T13:58:27;4.28;;;3.88;;
44558;SDS011;30270;40.238;18.256;2022-07-23T14:00:54;5.10;;;3.92;;
44558;SDS011;30270;40.238;18.256;2022-07-23T14:03:22;5.80;;;3.65;;
44558;SDS011;30270;40.238;18.256;2022-07-23T14:05:51;7.00;;;3.70;;
44558;SDS011;30270;40.238;18.256;2022-07-23T14:08:19;5.78;;;3.72;;
44558;SDS011;30270;40.238;18.256;2022-07-23T14:10:47;7.18;;;3.97;;
44558;SDS011;30270;40.238;18.256;2022-07-23T14:13:14;4.75;;;3.40;;
44558;SDS011;30270;40.238;18.256;2022-07-23T14:15:42;4.88;;;3.45;;
44558;SDS011;30270;40.238;18.256;2022-07-23T14:18:10;6.57;;;3.33;;
44558;SDS011;30270;40.238;18.256;2022-07-23T14:20:37;5.80;;;3.08;;
44558;SDS011;30270;40.238;18.256;2022-07-23T14:23:05;3.97;;;3.17;;
44558;SDS011;30270;40.238;18.256;2022-07-23T14:25:32;6.10;;;3.63;;
44558;SDS011;30270;40.238;18.256;2022-07-23T14:28:00;4.30;;;3.53;;
44558;SDS011;30270;40.238;18.256;2022-07-23T14:30:28;4.93;;;3.67;;
44558;SDS011;30270;40.238;18.256;2022-07-23T14:32:59;6.43;;;3.83;;
44558;SDS011;30270;40.238;18.256;2022-07-23T14:35:27;7.88;;;3.95;;
44558;SDS011;30270;40.238;18.256;2022-07-23T14:37:55;7.40;;;4.07;;
44558;SDS011;30270;40.238;18.256;2022-07-23T14:40:23;4.82;;;4.13;;
44558;SDS011;30270;40.238;18.256;2022-07-23T14:42:52;7.25;;;3.72;;
44558;SDS011;30270;40.238;18.256;2022-07-23T14:45:20;4.40;;;3.92;;
44558;SDS011;30270;40.238;18.256;2022-07-23T14:47:47;4.75;;;4.00;;
44558;SDS011;30270;40.238;18.256;2022-07-23T14:50:15;4.68;;;3.75;;
44558;SDS011;30270;40.238;18.256;2022-07-23T14:52:43;5.25;;;3.30;;
44558;SDS011;30270;40.238;18.256;2022-07-23T14:55:11;4.05;;;3.63;;
44558;SDS011;30270;40.238;18.256;2022-07-23T14:57:39;7.45;;;4.47;;
44558;SDS011;30270;40.238;18.256;2022-07-23T15:00:07;5.72;;;3.97;;
44558;SDS011;30270;40.238;18.256;2022-07-23T15:02:35;5.00;;;4.05;;
44558;SDS011;30270;40.238;18.256;2022-07-23T15:05:03;5.35;;;3.88;;
44558;SDS011;30270;40.238;18.256;2022-07-23T15:07:31;5.50;;;3.70;;
44558;SDS011;30270;40.238;18.256;2022-07-23T15:10:01;6.50;;;4.00;;
44558;SDS011;30270;40.238;18.256;2022-07-23T15:12:29;7.18;;;4.07;;
44558;SDS011;30270;40.238;18.256;2022-07-23T15:15:00;9.00;;;4.40;;
44558;SDS011;30270;40.238;18.256;2022-07-23T15:17:28;6.28;;;3.85;;
44558;SDS011;30270;40.238;18.256;2022-07-23T15:19:55;4.20;;;3.65;;
44558;SDS011;30270;40.238;18.256;2022-07-23T15:22:23;5.72;;;3.97;;
44558;SDS011;30270;40.238;18.256;2022-07-23T15:24:51;8.95;;;4.88;;
44558;SDS011;30270;40.238;18.256;2022-07-23T15:27:18;5.60;;;3.90;;
44558;SDS011;30270;40.238;18.256;2022-07-23T15:29:46;5.45;;;4.10;;
44558;SDS011;30270;40.238;18.256;2022-07-23T15:32:14;5.25;;;3.97;;
44558;SDS011;30270;40.238;18.256;2022-07-23T15:34:42;7.13;;;5.32;;